createdAt,value
2023-03-14T00:00:42.744Z,1.52
2023-03-14T00:03:11.151Z,1.30
2023-03-14T00:05:39.498Z,1.45
2023-03-14T00:08:08.376Z,1.23
2023-03-14T00:10:38.205Z,1.13
2023-03-14T00:13:07.960Z,1.10
2023-03-14T00:15:36.806Z,1.05
2023-03-14T00:18:05.261Z,1.23
2023-03-14T00:20:33.587Z,1.02
2023-03-14T00:23:01.930Z,1.08
2023-03-14T00:25:30.273Z,0.90
2023-03-14T00:27:58.614Z,0.90
2023-03-14T00:30:28.315Z,0.93
2023-03-14T00:32:56.788Z,0.70
2023-03-14T00:35:25.241Z,1.15
2023-03-14T00:37:55.103Z,0.70
2023-03-14T00:40:23.448Z,1.10
2023-03-14T00:42:51.733Z,0.93
2023-03-14T00:49:30.672Z,0.70
2023-03-14T00:51:59.012Z,0.80
2023-03-14T00:54:27.387Z,0.90
2023-03-14T00:56:55.689Z,0.70
2023-03-14T00:59:24.279Z,0.70
2023-03-14T01:01:52.717Z,0.80
2023-03-14T01:04:21.165Z,1.00
2023-03-14T01:06:51.313Z,0.77
2023-03-14T01:09:19.683Z,0.90
2023-03-14T01:11:49.966Z,0.77
2023-03-14T01:14:19.154Z,0.98
2023-03-14T01:16:47.453Z,1.00
2023-03-14T01:19:15.873Z,0.80
2023-03-14T01:21:44.174Z,0.70
2023-03-14T01:24:14.012Z,0.80
2023-03-14T01:26:42.334Z,1.05
2023-03-14T01:29:11.308Z,0.80
2023-03-14T01:31:41.094Z,0.90
2023-03-14T01:34:09.528Z,0.90
2023-03-14T01:36:37.916Z,0.85
2023-03-14T01:39:08.950Z,0.95
2023-03-14T01:41:38.641Z,0.80
2023-03-14T01:44:07.116Z,0.85
2023-03-14T01:46:42.671Z,0.93
2023-03-14T01:49:23.756Z,1.00
2023-03-14T01:52:03.432Z,0.90
2023-03-14T01:54:34.614Z,0.82
2023-03-14T01:57:07.458Z,0.70
2023-03-14T01:59:37.270Z,0.90
2023-03-14T02:02:08.382Z,0.90
2023-03-14T02:04:37.675Z,0.80
2023-03-14T02:07:10.269Z,0.90
2023-03-14T02:09:43.855Z,0.90
2023-03-14T02:12:19.153Z,0.85
2023-03-14T02:14:51.867Z,1.70
2023-03-14T02:17:25.565Z,0.88
2023-03-14T02:20:26.449Z,0.90
2023-03-14T02:22:57.715Z,0.90
2023-03-14T02:25:33.777Z,1.00
2023-03-14T02:28:03.836Z,0.93
2023-03-14T02:30:36.081Z,1.20
2023-03-14T02:33:06.564Z,1.17
2023-03-14T02:35:37.382Z,1.48
2023-03-14T02:38:09.847Z,1.25
2023-03-14T02:40:41.366Z,1.20
2023-03-14T02:43:11.264Z,0.98
2023-03-14T02:45:45.461Z,1.08
2023-03-14T02:48:21.629Z,0.93
2023-03-14T02:50:51.525Z,0.80
2023-03-14T02:53:21.072Z,1.27
2023-03-14T02:55:49.907Z,1.27
2023-03-14T02:58:22.131Z,1.40
2023-03-14T03:00:54.907Z,0.90
2023-03-14T03:03:25.162Z,1.08
2023-03-14T03:05:54.163Z,1.00
2023-03-14T03:08:23.368Z,1.30
2023-03-14T03:10:52.251Z,1.00
2023-03-14T03:13:22.124Z,1.00
2023-03-14T03:15:55.136Z,0.90
2023-03-14T03:18:23.485Z,0.80
2023-03-14T03:20:51.845Z,0.98
2023-03-14T03:23:20.195Z,0.57
2023-03-14T03:25:50.771Z,0.80
2023-03-14T03:28:19.269Z,0.77
2023-03-14T03:30:49.353Z,0.75
2023-03-14T03:33:17.943Z,0.80
2023-03-14T03:35:47.948Z,0.80
2023-03-14T03:38:21.104Z,0.98
2023-03-14T03:40:51.508Z,1.08
2023-03-14T03:43:20.190Z,1.23
2023-03-14T03:45:52.239Z,1.10
2023-03-14T03:48:22.135Z,1.08
2023-03-14T03:50:50.500Z,0.70
2023-03-14T03:53:32.746Z,0.95
2023-03-14T03:56:02.941Z,0.73
2023-03-14T03:58:31.601Z,1.10
2023-03-14T04:01:01.220Z,0.80
2023-03-14T04:03:29.805Z,0.98
2023-03-14T04:06:02.198Z,1.00
2023-03-14T04:08:30.775Z,0.70
2023-03-14T04:10:59.788Z,0.93
2023-03-14T04:13:48.646Z,0.75
2023-03-14T04:16:19.867Z,1.05
2023-03-14T04:18:48.267Z,0.85
2023-03-14T04:21:17.273Z,0.95
2023-03-14T04:23:51.348Z,0.60
2023-03-14T04:26:20.379Z,1.00
2023-03-14T04:28:49.028Z,0.80
2023-03-14T04:31:20.387Z,0.98
2023-03-14T04:33:49.265Z,1.13
2023-03-14T04:36:22.138Z,0.90
2023-03-14T04:38:50.666Z,0.73
2023-03-14T04:41:22.432Z,0.70
2023-03-14T04:43:50.831Z,0.82
2023-03-14T04:46:20.516Z,1.02
2023-03-14T04:48:50.709Z,0.80
2023-03-14T04:51:20.585Z,0.85
2023-03-14T04:53:49.061Z,0.80
2023-03-14T04:56:17.512Z,0.95
2023-03-14T04:58:46.077Z,0.68
2023-03-14T05:01:18.698Z,0.90
2023-03-14T05:04:26.658Z,0.75
2023-03-14T05:07:14.915Z,0.70
2023-03-14T05:10:01.912Z,0.60
2023-03-14T05:12:53.252Z,0.80
2023-03-14T05:15:32.694Z,0.82
2023-03-14T05:18:14.516Z,1.10
2023-03-14T05:20:58.762Z,0.80
2023-03-14T05:23:59.554Z,0.70
2023-03-14T05:26:49.401Z,0.85
2023-03-14T05:29:32.800Z,0.65
2023-03-14T05:32:19.630Z,0.60
2023-03-14T05:35:20.563Z,0.50
2023-03-14T05:38:09.377Z,0.77
2023-03-14T05:40:56.202Z,0.63
2023-03-14T05:43:43.887Z,0.60
2023-03-14T05:46:22.329Z,0.68
2023-03-14T05:49:10.260Z,0.70
2023-03-14T05:52:18.615Z,0.60
2023-03-14T05:54:53.637Z,0.60
2023-03-14T05:57:40.468Z,0.60
2023-03-14T06:00:26.949Z,0.82
2023-03-14T06:03:10.919Z,0.70
2023-03-14T06:05:44.132Z,0.68
2023-03-14T06:08:12.802Z,0.90
2023-03-14T06:10:42.505Z,0.68
2023-03-14T06:13:10.969Z,0.63
2023-03-14T06:15:39.853Z,0.70
2023-03-14T06:18:08.422Z,0.65
2023-03-14T06:20:39.921Z,1.00
2023-03-14T06:23:09.157Z,0.50
2023-03-14T06:25:38.217Z,1.10
2023-03-14T06:28:08.089Z,0.57
2023-03-14T06:30:37.402Z,0.65
2023-03-14T06:33:05.846Z,0.80
2023-03-14T06:35:34.280Z,0.88
2023-03-14T06:38:02.654Z,1.05
2023-03-14T06:40:31.074Z,0.60
2023-03-14T06:43:14.366Z,0.47
2023-03-14T06:45:45.527Z,0.52
2023-03-14T06:48:13.932Z,0.60
2023-03-14T06:50:50.251Z,0.95
2023-03-14T06:53:18.584Z,0.73
2023-03-14T06:55:47.529Z,0.75
2023-03-14T06:58:19.579Z,0.85
2023-03-14T07:00:48.149Z,0.73
2023-03-14T07:03:22.028Z,0.70
2023-03-14T07:05:52.006Z,0.50
2023-03-14T07:08:20.288Z,0.70
2023-03-14T07:10:48.710Z,0.65
2023-03-14T07:13:19.821Z,0.40
2023-03-14T07:15:59.915Z,0.55
2023-03-14T07:18:28.356Z,0.70
2023-03-14T07:20:57.764Z,0.50
2023-03-14T07:23:26.223Z,0.70
2023-03-14T07:25:55.720Z,0.70
2023-03-14T07:28:28.610Z,0.75
2023-03-14T07:31:03.224Z,1.23
2023-03-14T07:33:34.014Z,0.40
2023-03-14T07:36:04.475Z,0.60
2023-03-14T07:38:33.253Z,0.70
2023-03-14T07:41:14.433Z,0.88
2023-03-14T07:43:50.943Z,0.68
2023-03-14T07:46:19.604Z,0.45
2023-03-14T07:48:47.935Z,0.50
2023-03-14T07:51:16.432Z,0.52
2023-03-14T07:53:45.042Z,0.70
2023-03-14T07:56:13.415Z,0.70
2023-03-14T07:58:41.795Z,0.60
2023-03-14T08:01:11.751Z,0.65
2023-03-14T08:03:40.149Z,0.50
2023-03-14T08:06:08.801Z,0.60
2023-03-14T08:08:37.135Z,0.50
2023-03-14T08:11:06.421Z,0.60
2023-03-14T08:13:35.047Z,0.52
2023-03-14T08:16:03.573Z,0.40
2023-03-14T08:18:33.285Z,0.68
2023-03-14T08:21:01.719Z,0.60
2023-03-14T08:23:30.401Z,0.70
2023-03-14T08:26:00.976Z,0.50
2023-03-14T08:28:31.576Z,0.50
2023-03-14T08:31:00.263Z,0.50
2023-03-14T08:33:29.222Z,0.55
2023-03-14T08:36:00.805Z,0.70
2023-03-14T08:38:29.261Z,0.40
2023-03-14T08:40:58.463Z,0.80
2023-03-14T08:43:26.964Z,1.00
2023-03-14T08:45:55.356Z,0.70
2023-03-14T08:48:26.974Z,0.43
2023-03-14T08:51:44.124Z,0.52
2023-03-14T08:54:14.168Z,0.32
2023-03-14T08:56:44.759Z,0.40
2023-03-14T08:59:13.235Z,0.65
2023-03-14T09:01:42.524Z,0.57
2023-03-14T09:04:12.515Z,0.63
2023-03-14T09:06:45.766Z,0.40
2023-03-14T09:09:18.174Z,0.50
2023-03-14T09:11:46.726Z,0.57
2023-03-14T09:14:15.138Z,0.50
2023-03-14T09:16:43.565Z,0.45
2023-03-14T09:19:12.094Z,0.50
2023-03-14T09:21:40.581Z,0.43
2023-03-14T09:24:09.113Z,0.47
2023-03-14T09:26:38.901Z,0.60
2023-03-14T09:29:07.233Z,0.47
2023-03-14T09:31:36.181Z,0.60
2023-03-14T09:34:05.188Z,0.50
2023-03-14T09:36:34.032Z,0.55
2023-03-14T09:39:02.558Z,0.40
2023-03-14T09:41:33.652Z,0.60
2023-03-14T09:44:06.500Z,0.60
2023-03-14T09:46:36.304Z,0.60
2023-03-14T09:49:04.964Z,0.70
2023-03-14T09:51:34.000Z,0.75
2023-03-14T09:54:03.465Z,0.50
2023-03-14T09:56:34.572Z,0.43
2023-03-14T09:59:06.370Z,0.52
2023-03-14T10:01:43.879Z,0.60
2023-03-14T10:04:20.692Z,0.70
2023-03-14T10:06:49.388Z,0.57
2023-03-14T10:09:20.179Z,0.60
2023-03-14T10:11:48.676Z,0.55
2023-03-14T10:14:30.760Z,0.50
2023-03-14T10:17:07.474Z,0.93
2023-03-14T10:19:36.750Z,0.70
2023-03-14T10:22:06.436Z,0.60
2023-03-14T10:24:35.330Z,0.60
2023-03-14T10:27:04.785Z,0.65
2023-03-14T10:29:35.696Z,0.50
2023-03-14T10:32:04.913Z,0.70
2023-03-14T10:34:34.408Z,0.63
2023-03-14T10:37:08.540Z,0.65
2023-03-14T10:39:42.492Z,1.60
2023-03-14T10:42:16.107Z,1.80
2023-03-14T10:44:46.714Z,1.08
2023-03-14T10:47:21.079Z,0.70
2023-03-14T10:49:49.510Z,0.65
2023-03-14T10:52:30.806Z,0.52
2023-03-14T10:55:06.235Z,1.13
2023-03-14T10:57:34.768Z,0.80
2023-03-14T11:00:09.359Z,1.10
2023-03-14T11:02:45.666Z,0.60
2023-03-14T11:05:21.107Z,0.60
2023-03-14T11:07:49.669Z,1.63
2023-03-14T11:10:22.249Z,0.82
2023-03-14T11:13:07.649Z,0.65
2023-03-14T11:15:39.351Z,1.10
2023-03-14T11:18:26.488Z,2.33
2023-03-14T11:20:56.443Z,1.20
2023-03-14T11:23:26.182Z,0.90
2023-03-14T11:25:59.739Z,0.98
2023-03-14T11:28:31.600Z,1.50
2023-03-14T11:31:04.634Z,0.90
2023-03-14T11:33:38.150Z,0.90
2023-03-14T11:36:09.493Z,0.73
2023-03-14T11:38:41.406Z,0.60
2023-03-14T11:41:13.270Z,1.33
2023-03-14T11:43:43.871Z,0.90
2023-03-14T11:46:17.450Z,1.05
2023-03-14T11:48:47.402Z,0.70
2023-03-14T11:51:19.209Z,1.00
2023-03-14T11:54:00.433Z,1.65
2023-03-14T11:56:32.100Z,1.90
2023-03-14T11:59:02.896Z,0.70
2023-03-14T12:01:37.543Z,0.93
2023-03-14T12:04:12.196Z,0.90
2023-03-14T12:06:43.418Z,1.27
2023-03-14T12:09:12.719Z,1.67
2023-03-14T12:11:43.284Z,0.85
2023-03-14T12:14:22.631Z,0.82
2023-03-14T12:16:57.988Z,0.52
2023-03-14T12:19:31.780Z,0.50
2023-03-14T12:22:03.068Z,0.40
2023-03-14T12:24:33.403Z,0.40
2023-03-14T12:27:02.739Z,0.30
2023-03-14T12:29:32.090Z,0.30
2023-03-14T12:32:12.499Z,0.40
2023-03-14T12:34:43.342Z,0.32
2023-03-14T12:37:32.297Z,0.43
2023-03-14T12:40:15.700Z,0.40
2023-03-14T12:42:47.960Z,0.50
2023-03-14T12:45:23.930Z,0.40
2023-03-14T12:48:10.424Z,0.30
2023-03-14T12:50:43.668Z,0.90
2023-03-14T12:53:30.923Z,0.30
2023-03-14T12:56:02.112Z,0.50
2023-03-14T12:58:34.148Z,0.35
2023-03-14T13:01:04.270Z,0.60
2023-03-14T13:03:39.768Z,0.50
2023-03-14T13:06:12.074Z,0.47
2023-03-14T13:08:41.610Z,0.40
2023-03-14T13:11:11.894Z,0.57
2023-03-14T13:13:46.008Z,0.60
2023-03-14T13:16:17.628Z,0.65
2023-03-14T13:18:47.533Z,0.60
2023-03-14T13:21:20.635Z,0.98
2023-03-14T13:24:06.921Z,0.60
2023-03-14T13:26:36.768Z,1.08
2023-03-14T13:29:11.362Z,0.85
2023-03-14T13:31:39.745Z,0.60
2023-03-14T13:34:09.862Z,0.60
2023-03-14T13:36:39.714Z,0.60
2023-03-14T13:39:14.090Z,0.50
2023-03-14T13:41:42.582Z,0.50
2023-03-14T13:44:11.861Z,0.60
2023-03-14T13:46:40.928Z,0.73
2023-03-14T13:49:13.362Z,0.50
2023-03-14T13:51:43.249Z,0.32
2023-03-14T13:54:16.516Z,0.40
2023-03-14T13:56:45.745Z,0.88
2023-03-14T13:59:27.392Z,0.88
2023-03-14T14:01:56.150Z,0.43
2023-03-14T14:04:27.431Z,0.50
2023-03-14T14:06:58.864Z,0.40
2023-03-14T14:09:28.073Z,0.47
2023-03-14T14:12:14.923Z,0.40
2023-03-14T14:14:46.070Z,0.30
2023-03-14T14:17:15.986Z,0.45
2023-03-14T14:19:45.051Z,0.40
2023-03-14T14:22:14.985Z,0.32
2023-03-14T14:24:43.902Z,0.20
2023-03-14T14:27:16.116Z,0.50
2023-03-14T14:29:44.825Z,0.38
2023-03-14T14:32:15.189Z,0.28
2023-03-14T14:34:50.291Z,1.00
2023-03-14T14:37:27.432Z,0.43
2023-03-14T14:39:57.811Z,0.30
2023-03-14T14:42:28.208Z,0.20
2023-03-14T14:44:57.093Z,0.40
2023-03-14T14:47:26.783Z,0.43
2023-03-14T14:49:56.116Z,0.32
2023-03-14T14:52:37.824Z,0.40
2023-03-14T14:55:17.303Z,0.40
2023-03-14T14:57:55.303Z,0.25
2023-03-14T15:00:32.198Z,0.40
2023-03-14T15:03:02.768Z,0.47
2023-03-14T15:05:36.917Z,0.40
2023-03-14T15:08:10.767Z,0.40
2023-03-14T15:10:39.260Z,0.50
2023-03-14T15:13:07.665Z,0.50
2023-03-14T15:15:36.083Z,0.57
2023-03-14T15:18:04.463Z,0.60
2023-03-14T15:20:34.016Z,0.63
2023-03-14T15:23:02.624Z,0.88
2023-03-14T15:25:53.553Z,0.70
2023-03-14T15:28:22.004Z,0.90
2023-03-14T15:30:51.000Z,0.73
2023-03-14T15:33:19.791Z,0.60
2023-03-14T15:35:49.011Z,0.70
2023-03-14T15:38:20.583Z,0.52
2023-03-14T15:40:50.276Z,0.50
2023-03-14T15:43:19.147Z,0.30
2023-03-14T15:45:47.933Z,0.45
2023-03-14T15:48:17.592Z,0.40
2023-03-14T15:50:45.940Z,0.43
2023-03-14T15:53:14.474Z,0.50
2023-03-14T15:55:42.757Z,0.40
2023-03-14T15:58:20.041Z,0.57
2023-03-14T16:00:49.711Z,0.45
2023-03-14T16:03:21.124Z,0.50
2023-03-14T16:05:52.377Z,0.55
2023-03-14T16:08:21.827Z,0.50
2023-03-14T16:10:52.946Z,0.40
2023-03-14T16:13:26.884Z,0.40
2023-03-14T16:15:56.331Z,0.40
2023-03-14T16:18:24.908Z,0.50
2023-03-14T16:20:57.181Z,0.50
2023-03-14T16:23:29.326Z,0.28
2023-03-14T16:25:58.619Z,0.35
2023-03-14T16:28:28.597Z,0.40
2023-03-14T16:31:02.386Z,0.43
2023-03-14T16:33:31.000Z,0.50
2023-03-14T16:36:01.271Z,0.50
2023-03-14T16:38:33.605Z,0.65
2023-03-14T16:41:03.105Z,0.50
2023-03-14T16:43:33.983Z,0.77
2023-03-14T16:46:02.728Z,0.70
2023-03-14T16:48:31.914Z,0.70
2023-03-14T16:51:00.607Z,1.08
2023-03-14T16:53:30.220Z,0.82
2023-03-14T16:56:00.260Z,0.77
2023-03-14T16:58:30.233Z,0.80
2023-03-14T17:01:13.083Z,0.70
2023-03-14T17:03:45.726Z,0.73
2023-03-14T17:06:25.104Z,0.80
2023-03-14T17:09:01.652Z,0.85
2023-03-14T17:11:36.306Z,0.80
2023-03-14T17:14:06.507Z,1.45
2023-03-14T17:16:39.184Z,0.45
2023-03-14T17:19:07.649Z,0.50
2023-03-14T17:21:36.069Z,0.63
2023-03-14T17:24:04.590Z,0.55
2023-03-14T17:26:33.047Z,0.60
2023-03-14T17:29:01.378Z,0.50
2023-03-14T17:31:29.716Z,0.60
2023-03-14T17:33:59.604Z,0.60
2023-03-14T17:36:30.519Z,0.50
2023-03-14T17:38:59.019Z,0.77
2023-03-14T17:41:27.317Z,0.50
2023-03-14T17:43:57.161Z,0.60
2023-03-14T17:46:26.726Z,0.90
2023-03-14T17:48:55.180Z,0.70
2023-03-14T17:51:24.964Z,0.80
2023-03-14T17:53:53.411Z,0.60
2023-03-14T17:56:21.851Z,0.85
2023-03-14T17:58:50.249Z,1.00
2023-03-14T18:01:23.444Z,1.20
2023-03-14T18:03:56.302Z,1.30
2023-03-14T18:06:30.111Z,1.10
2023-03-14T18:09:01.253Z,1.90
2023-03-14T18:11:34.456Z,1.83
2023-03-14T18:14:04.737Z,1.00
2023-03-14T18:16:33.249Z,1.35
2023-03-14T18:19:01.937Z,1.60
2023-03-14T18:21:31.781Z,1.05
2023-03-14T18:24:02.574Z,1.80
2023-03-14T18:26:31.044Z,1.33
2023-03-14T18:28:59.411Z,1.40
2023-03-14T18:31:27.840Z,1.35
2023-03-14T18:33:57.791Z,2.40
2023-03-14T18:36:26.774Z,2.42
2023-03-14T18:38:58.578Z,2.25
2023-03-14T18:41:27.747Z,1.65
2023-03-14T18:43:56.322Z,2.08
2023-03-14T18:46:25.348Z,1.70
2023-03-14T18:48:56.347Z,1.70
2023-03-14T18:51:26.774Z,1.75
2023-03-14T18:54:08.472Z,1.33
2023-03-14T18:56:37.662Z,1.90
2023-03-14T18:59:06.088Z,1.63
2023-03-14T19:01:34.624Z,1.65
2023-03-14T19:04:03.886Z,1.75
2023-03-14T19:06:33.155Z,4.20
2023-03-14T19:09:05.816Z,2.30
2023-03-14T19:11:34.225Z,2.60
2023-03-14T19:14:03.755Z,2.40
2023-03-14T19:16:32.333Z,2.90
2023-03-14T19:19:00.836Z,3.40
2023-03-14T19:21:30.145Z,2.40
2023-03-14T19:23:58.605Z,2.25
2023-03-14T19:26:30.105Z,2.70
2023-03-14T19:28:58.573Z,3.35
2023-03-14T19:31:27.426Z,3.08
2023-03-14T19:33:55.931Z,2.92
2023-03-14T19:36:25.833Z,2.40
2023-03-14T19:38:54.473Z,2.00
2023-03-14T19:41:24.010Z,2.55
2023-03-14T19:43:54.019Z,3.50
2023-03-14T19:46:22.938Z,3.63
2023-03-14T19:48:54.058Z,3.03
2023-03-14T19:51:23.122Z,3.55
2023-03-14T19:53:51.534Z,3.13
2023-03-14T19:56:20.640Z,2.63
2023-03-14T19:58:48.985Z,3.10
2023-03-14T20:01:18.862Z,3.28
2023-03-14T20:03:47.333Z,3.53
2023-03-14T20:06:15.725Z,6.25
2023-03-14T20:08:45.722Z,4.28
2023-03-14T20:11:14.199Z,3.45
2023-03-14T20:13:44.369Z,2.97
2023-03-14T20:16:12.748Z,5.80
2023-03-14T20:18:42.491Z,2.25
2023-03-14T20:21:13.035Z,1.67
2023-03-14T20:23:43.567Z,1.50
2023-03-14T20:26:11.953Z,1.55
2023-03-14T20:28:42.362Z,1.60
2023-03-14T20:31:10.806Z,1.40
2023-03-14T20:33:39.207Z,1.42
2023-03-14T20:36:09.561Z,1.98
2023-03-14T20:38:37.919Z,2.13
2023-03-14T20:41:07.543Z,2.42
2023-03-14T20:43:36.295Z,10.88
2023-03-14T20:46:04.914Z,3.00
2023-03-14T20:48:33.713Z,2.78
2023-03-14T20:51:02.710Z,2.45
2023-03-14T20:53:32.382Z,2.80
2023-03-14T20:56:00.679Z,3.00
2023-03-14T20:58:29.066Z,2.85
2023-03-14T21:00:59.079Z,2.60
2023-03-14T21:03:28.051Z,3.00
2023-03-14T21:05:57.002Z,2.78
2023-03-14T21:08:26.415Z,3.53
2023-03-14T21:10:56.990Z,3.22
2023-03-14T21:13:25.455Z,3.10
2023-03-14T21:15:54.061Z,2.65
2023-03-14T21:18:23.210Z,3.28
2023-03-14T21:20:54.514Z,2.45
2023-03-14T21:23:26.371Z,2.97
2023-03-14T21:25:56.811Z,2.42
2023-03-14T21:28:25.420Z,2.60
2023-03-14T21:30:54.179Z,3.00
2023-03-14T21:33:22.965Z,2.75
2023-03-14T21:35:53.561Z,2.33
2023-03-14T21:38:21.889Z,2.40
2023-03-14T21:40:51.421Z,2.25
2023-03-14T21:43:21.634Z,3.88
2023-03-14T21:45:50.084Z,2.30
2023-03-14T21:48:18.644Z,2.45
2023-03-14T21:50:47.602Z,2.03
2023-03-14T21:53:16.242Z,2.00
2023-03-14T21:55:44.819Z,2.08
2023-03-14T21:58:14.247Z,2.22
2023-03-14T22:00:48.864Z,2.22
2023-03-14T22:03:18.008Z,1.80
2023-03-14T22:05:47.011Z,2.30
2023-03-14T22:08:16.154Z,2.80
2023-03-14T22:10:45.364Z,2.22
2023-03-14T22:13:15.361Z,1.98
2023-03-14T22:15:46.152Z,2.20
2023-03-14T22:18:14.848Z,2.10
2023-03-14T22:20:43.599Z,2.17
2023-03-14T22:23:12.231Z,2.33
2023-03-14T22:25:41.236Z,2.67
2023-03-14T22:28:09.589Z,2.38
2023-03-14T22:30:37.940Z,2.25
2023-03-14T22:33:07.896Z,2.47
2023-03-14T22:35:36.927Z,3.10
2023-03-14T22:38:05.279Z,2.45
2023-03-14T22:40:33.621Z,2.10
2023-03-14T22:43:01.895Z,1.95
2023-03-14T22:45:30.246Z,2.50
2023-03-14T22:47:59.014Z,2.08
2023-03-14T22:50:28.950Z,2.28
2023-03-14T22:52:58.787Z,2.40
2023-03-14T22:55:27.119Z,2.75
2023-03-14T22:57:57.532Z,2.78
2023-03-14T23:00:27.012Z,2.50
2023-03-14T23:02:55.601Z,1.92
2023-03-14T23:05:24.105Z,2.63
2023-03-14T23:07:53.886Z,2.58
2023-03-14T23:10:22.225Z,2.50
2023-03-14T23:12:50.554Z,2.67
2023-03-14T23:15:19.036Z,2.55
2023-03-14T23:17:47.640Z,2.88
2023-03-14T23:20:16.231Z,2.83
2023-03-14T23:22:44.588Z,3.28
2023-03-14T23:25:14.271Z,2.53
2023-03-14T23:27:46.386Z,2.47
2023-03-14T23:30:15.621Z,2.67
2023-03-14T23:32:44.146Z,3.05
2023-03-14T23:35:12.754Z,3.75
2023-03-14T23:37:41.114Z,2.85
2023-03-14T23:40:10.087Z,3.15
2023-03-14T23:42:40.065Z,2.88
2023-03-14T23:45:09.096Z,3.28
2023-03-14T23:47:37.468Z,4.85
2023-03-14T23:50:06.107Z,6.90
2023-03-14T23:52:34.450Z,3.60
2023-03-14T23:55:02.827Z,3.00
2023-03-14T23:57:31.161Z,2.78
